sensor_id;sensor_type;location;lat;lon;timestamp;temperature;humidity
827;DHT22;395;48.132;11.608;2022-09-09T00:00:13;20.70;1.00
827;DHT22;395;48.132;11.608;2022-09-09T00:02:45;20.70;1.00
827;DHT22;395;48.132;11.608;2022-09-09T00:07:51;20.60;1.00
827;DHT22;395;48.132;11.608;2022-09-09T00:10:34;20.60;1.00
827;DHT22;395;48.132;11.608;2022-09-09T00:13:46;20.60;1.00
827;DHT22;395;48.132;11.608;2022-09-09T00:16:15;20.50;1.00
827;DHT22;395;48.132;11.608;2022-09-09T00:21:17;20.40;1.00
827;DHT22;395;48.132;11.608;2022-09-09T00:23:55;20.40;1.00
827;DHT22;395;48.132;11.608;2022-09-09T00:26:38;20.30;1.00
827;DHT22;395;48.132;11.608;2022-09-09T00:29:25;20.30;1.00
827;DHT22;395;48.132;11.608;2022-09-09T00:31:59;20.40;1.00
827;DHT22;395;48.132;11.608;2022-09-09T00:34:26;20.40;1.00
827;DHT22;395;48.132;11.608;2022-09-09T00:36:54;20.30;1.00
827;DHT22;395;48.132;11.608;2022-09-09T00:39:39;20.30;1.00
827;DHT22;395;48.132;11.608;2022-09-09T00:42:20;20.30;1.00
827;DHT22;395;48.132;11.608;2022-09-09T00:47:46;20.30;1.00
827;DHT22;395;48.132;11.608;2022-09-09T00:50:29;20.30;1.00
827;DHT22;395;48.132;11.608;2022-09-09T00:58:17;20.20;1.00
827;DHT22;395;48.132;11.608;2022-09-09T01:00:57;20.20;1.00
827;DHT22;395;48.132;11.608;2022-09-09T01:06:35;20.20;1.00
827;DHT22;395;48.132;11.608;2022-09-09T01:17:25;20.20;1.00
827;DHT22;395;48.132;11.608;2022-09-09T01:20:12;20.10;1.00
827;DHT22;395;48.132;11.608;2022-09-09T01:23:04;20.00;1.00
827;DHT22;395;48.132;11.608;2022-09-09T01:28:13;19.90;1.00
827;DHT22;395;48.132;11.608;2022-09-09T01:30:41;19.90;1.00
827;DHT22;395;48.132;11.608;2022-09-09T01:33:13;19.80;1.00
827;DHT22;395;48.132;11.608;2022-09-09T01:38:07;19.80;1.00
827;DHT22;395;48.132;11.608;2022-09-09T01:40:33;19.80;1.00
827;DHT22;395;48.132;11.608;2022-09-09T01:42:59;19.80;1.00
827;DHT22;395;48.132;11.608;2022-09-09T01:45:25;19.80;1.00
827;DHT22;395;48.132;11.608;2022-09-09T01:47:52;19.80;1.00
827;DHT22;395;48.132;11.608;2022-09-09T01:50:19;19.80;1.00
827;DHT22;395;48.132;11.608;2022-09-09T01:52:47;19.80;1.00
827;DHT22;395;48.132;11.608;2022-09-09T01:55:14;19.80;1.00
827;DHT22;395;48.132;11.608;2022-09-09T02:00:19;19.80;1.00
827;DHT22;395;48.132;11.608;2022-09-09T02:08:47;19.70;1.00
827;DHT22;395;48.132;11.608;2022-09-09T02:11:17;19.70;1.00
827;DHT22;395;48.132;11.608;2022-09-09T02:13:47;19.70;1.00
827;DHT22;395;48.132;11.608;2022-09-09T02:18:51;19.70;1.00
827;DHT22;395;48.132;11.608;2022-09-09T02:21:18;19.60;1.00
827;DHT22;395;48.132;11.608;2022-09-09T02:23:47;19.60;1.00
827;DHT22;395;48.132;11.608;2022-09-09T02:26:14;19.60;1.00
827;DHT22;395;48.132;11.608;2022-09-09T02:28:46;19.50;1.00
827;DHT22;395;48.132;11.608;2022-09-09T02:31:16;19.50;1.00
827;DHT22;395;48.132;11.608;2022-09-09T02:33:53;19.50;1.00
827;DHT22;395;48.132;11.608;2022-09-09T02:36:21;19.50;1.00
827;DHT22;395;48.132;11.608;2022-09-09T02:38:47;19.50;1.00
827;DHT22;395;48.132;11.608;2022-09-09T02:41:18;19.50;1.00
827;DHT22;395;48.132;11.608;2022-09-09T02:43:44;19.50;1.10
827;DHT22;395;48.132;11.608;2022-09-09T02:51:42;19.40;1.50
827;DHT22;395;48.132;11.608;2022-09-09T02:56:40;19.30;1.60
827;DHT22;395;48.132;11.608;2022-09-09T02:59:07;19.20;1.60
827;DHT22;395;48.132;11.608;2022-09-09T03:01:33;19.30;1.70
827;DHT22;395;48.132;11.608;2022-09-09T03:03:58;19.20;1.80
827;DHT22;395;48.132;11.608;2022-09-09T03:06:24;19.30;2.00
827;DHT22;395;48.132;11.608;2022-09-09T03:08:50;19.30;2.20
827;DHT22;395;48.132;11.608;2022-09-09T03:11:16;19.30;2.00
827;DHT22;395;48.132;11.608;2022-09-09T03:13:42;19.30;2.00
827;DHT22;395;48.132;11.608;2022-09-09T03:16:09;19.30;2.20
827;DHT22;395;48.132;11.608;2022-09-09T03:18:34;19.20;2.10
827;DHT22;395;48.132;11.608;2022-09-09T03:21:00;19.20;2.10
827;DHT22;395;48.132;11.608;2022-09-09T03:23:26;19.10;2.10
827;DHT22;395;48.132;11.608;2022-09-09T03:25:52;19.10;2.10
827;DHT22;395;48.132;11.608;2022-09-09T03:28:20;19.10;2.10
827;DHT22;395;48.132;11.608;2022-09-09T03:30:46;19.10;2.40
827;DHT22;395;48.132;11.608;2022-09-09T03:33:11;19.00;2.70
827;DHT22;395;48.132;11.608;2022-09-09T03:35:37;19.00;2.90
827;DHT22;395;48.132;11.608;2022-09-09T03:38:04;19.00;3.10
827;DHT22;395;48.132;11.608;2022-09-09T03:40:29;19.00;3.20
827;DHT22;395;48.132;11.608;2022-09-09T03:42:56;19.00;3.30
827;DHT22;395;48.132;11.608;2022-09-09T03:45:21;19.00;3.50
827;DHT22;395;48.132;11.608;2022-09-09T03:47:47;18.90;3.60
827;DHT22;395;48.132;11.608;2022-09-09T03:50:13;18.90;3.80
827;DHT22;395;48.132;11.608;2022-09-09T03:52:39;18.90;4.00
827;DHT22;395;48.132;11.608;2022-09-09T03:55:07;18.90;4.00
827;DHT22;395;48.132;11.608;2022-09-09T03:57:34;18.90;4.20
827;DHT22;395;48.132;11.608;2022-09-09T04:00:03;18.90;4.20
827;DHT22;395;48.132;11.608;2022-09-09T04:02:30;19.00;4.30
827;DHT22;395;48.132;11.608;2022-09-09T04:04:55;19.00;4.20
827;DHT22;395;48.132;11.608;2022-09-09T04:07:21;19.00;4.30
827;DHT22;395;48.132;11.608;2022-09-09T04:09:47;19.00;4.10
827;DHT22;395;48.132;11.608;2022-09-09T04:12:13;19.10;4.00
827;DHT22;395;48.132;11.608;2022-09-09T04:14:39;19.10;3.40
827;DHT22;395;48.132;11.608;2022-09-09T04:17:04;19.10;3.80
827;DHT22;395;48.132;11.608;2022-09-09T04:19:32;19.10;3.70
827;DHT22;395;48.132;11.608;2022-09-09T04:21:57;19.10;3.60
827;DHT22;395;48.132;11.608;2022-09-09T04:24:23;19.10;3.40
827;DHT22;395;48.132;11.608;2022-09-09T04:26:49;19.20;3.30
827;DHT22;395;48.132;11.608;2022-09-09T04:29:15;19.20;3.10
827;DHT22;395;48.132;11.608;2022-09-09T04:31:41;19.20;3.10
827;DHT22;395;48.132;11.608;2022-09-09T04:34:08;19.20;3.00
827;DHT22;395;48.132;11.608;2022-09-09T04:36:34;19.20;3.10
827;DHT22;395;48.132;11.608;2022-09-09T04:39:00;19.10;3.00
827;DHT22;395;48.132;11.608;2022-09-09T04:41:27;19.10;3.10
827;DHT22;395;48.132;11.608;2022-09-09T04:43:52;19.20;3.10
827;DHT22;395;48.132;11.608;2022-09-09T04:46:19;19.10;3.10
827;DHT22;395;48.132;11.608;2022-09-09T04:48:45;19.10;3.20
827;DHT22;395;48.132;11.608;2022-09-09T04:51:12;19.10;3.40
827;DHT22;395;48.132;11.608;2022-09-09T04:53:38;19.10;3.40
827;DHT22;395;48.132;11.608;2022-09-09T04:56:10;19.10;3.40
827;DHT22;395;48.132;11.608;2022-09-09T04:58:37;19.10;3.60
827;DHT22;395;48.132;11.608;2022-09-09T05:03:39;19.10;3.80
827;DHT22;395;48.132;11.608;2022-09-09T05:06:09;19.00;3.90
827;DHT22;395;48.132;11.608;2022-09-09T05:08:37;19.00;4.10
827;DHT22;395;48.132;11.608;2022-09-09T05:11:03;19.00;4.40
827;DHT22;395;48.132;11.608;2022-09-09T05:13:29;19.00;4.60
827;DHT22;395;48.132;11.608;2022-09-09T05:15:57;19.00;4.70
827;DHT22;395;48.132;11.608;2022-09-09T05:18:23;19.00;5.30
827;DHT22;395;48.132;11.608;2022-09-09T05:20:49;19.00;4.60
827;DHT22;395;48.132;11.608;2022-09-09T05:23:16;19.00;4.70
827;DHT22;395;48.132;11.608;2022-09-09T05:25:41;19.00;4.60
827;DHT22;395;48.132;11.608;2022-09-09T05:28:07;18.90;4.40
827;DHT22;395;48.132;11.608;2022-09-09T05:30:33;18.90;4.50
827;DHT22;395;48.132;11.608;2022-09-09T05:32:59;18.90;4.60
827;DHT22;395;48.132;11.608;2022-09-09T05:35:25;18.90;4.80
827;DHT22;395;48.132;11.608;2022-09-09T05:37:51;18.90;4.80
827;DHT22;395;48.132;11.608;2022-09-09T05:40:16;18.90;4.60
827;DHT22;395;48.132;11.608;2022-09-09T05:42:42;18.90;4.80
827;DHT22;395;48.132;11.608;2022-09-09T05:45:08;18.90;4.80
827;DHT22;395;48.132;11.608;2022-09-09T05:47:35;18.90;4.80
827;DHT22;395;48.132;11.608;2022-09-09T05:50:03;18.90;5.00
827;DHT22;395;48.132;11.608;2022-09-09T05:52:28;18.90;5.00
827;DHT22;395;48.132;11.608;2022-09-09T05:54:54;18.90;4.90
827;DHT22;395;48.132;11.608;2022-09-09T05:57:22;18.90;4.80
827;DHT22;395;48.132;11.608;2022-09-09T05:59:47;18.90;4.60
827;DHT22;395;48.132;11.608;2022-09-09T06:02:13;19.00;4.60
827;DHT22;395;48.132;11.608;2022-09-09T06:04:39;19.00;4.50
827;DHT22;395;48.132;11.608;2022-09-09T06:07:05;19.10;4.50
827;DHT22;395;48.132;11.608;2022-09-09T06:09:31;19.10;4.20
827;DHT22;395;48.132;11.608;2022-09-09T06:11:57;19.20;4.10
827;DHT22;395;48.132;11.608;2022-09-09T06:14:24;19.20;3.60
827;DHT22;395;48.132;11.608;2022-09-09T06:16:51;19.30;3.60
827;DHT22;395;48.132;11.608;2022-09-09T06:19:17;19.30;3.00
827;DHT22;395;48.132;11.608;2022-09-09T06:21:43;19.40;2.70
827;DHT22;395;48.132;11.608;2022-09-09T06:24:10;19.40;2.30
827;DHT22;395;48.132;11.608;2022-09-09T06:26:39;19.40;2.30
827;DHT22;395;48.132;11.608;2022-09-09T06:29:06;19.40;2.30
827;DHT22;395;48.132;11.608;2022-09-09T06:31:34;19.40;2.30
827;DHT22;395;48.132;11.608;2022-09-09T06:34:04;19.40;2.30
827;DHT22;395;48.132;11.608;2022-09-09T06:36:32;19.40;2.40
827;DHT22;395;48.132;11.608;2022-09-09T06:38:59;19.40;2.30
827;DHT22;395;48.132;11.608;2022-09-09T06:41:27;19.50;2.30
827;DHT22;395;48.132;11.608;2022-09-09T06:43:53;19.50;2.30
827;DHT22;395;48.132;11.608;2022-09-09T06:46:22;19.50;2.30
827;DHT22;395;48.132;11.608;2022-09-09T06:48:48;19.60;2.40
827;DHT22;395;48.132;11.608;2022-09-09T06:53:43;19.60;2.30
827;DHT22;395;48.132;11.608;2022-09-09T06:58:36;19.60;2.40
827;DHT22;395;48.132;11.608;2022-09-09T07:01:06;19.60;2.40
827;DHT22;395;48.132;11.608;2022-09-09T07:03:32;19.60;2.30
827;DHT22;395;48.132;11.608;2022-09-09T07:05:58;19.70;1.90
827;DHT22;395;48.132;11.608;2022-09-09T07:08:24;19.70;1.80
827;DHT22;395;48.132;11.608;2022-09-09T07:10:51;19.80;1.70
827;DHT22;395;48.132;11.608;2022-09-09T07:13:28;19.80;1.80
827;DHT22;395;48.132;11.608;2022-09-09T07:15:53;19.80;1.80
827;DHT22;395;48.132;11.608;2022-09-09T07:18:19;19.90;1.90
827;DHT22;395;48.132;11.608;2022-09-09T07:20:55;19.90;2.00
827;DHT22;395;48.132;11.608;2022-09-09T07:23:23;19.90;2.00
827;DHT22;395;48.132;11.608;2022-09-09T07:25:49;19.90;1.60
827;DHT22;395;48.132;11.608;2022-09-09T07:28:16;20.00;1.20
827;DHT22;395;48.132;11.608;2022-09-09T07:30:42;19.90;1.20
827;DHT22;395;48.132;11.608;2022-09-09T07:33:08;19.90;1.30
827;DHT22;395;48.132;11.608;2022-09-09T07:35:35;19.80;1.50
827;DHT22;395;48.132;11.608;2022-09-09T07:38:02;19.90;1.50
827;DHT22;395;48.132;11.608;2022-09-09T07:40:32;19.80;1.70
827;DHT22;395;48.132;11.608;2022-09-09T07:42:58;19.90;1.50
827;DHT22;395;48.132;11.608;2022-09-09T07:45:24;19.90;1.40
827;DHT22;395;48.132;11.608;2022-09-09T07:47:50;19.90;1.60
827;DHT22;395;48.132;11.608;2022-09-09T07:50:15;19.90;1.80
827;DHT22;395;48.132;11.608;2022-09-09T07:52:41;19.90;1.80
827;DHT22;395;48.132;11.608;2022-09-09T07:55:07;20.00;1.90
827;DHT22;395;48.132;11.608;2022-09-09T07:57:32;20.00;2.00
827;DHT22;395;48.132;11.608;2022-09-09T07:59:58;20.00;1.80
827;DHT22;395;48.132;11.608;2022-09-09T08:02:24;20.10;1.40
827;DHT22;395;48.132;11.608;2022-09-09T08:04:51;20.10;1.20
827;DHT22;395;48.132;11.608;2022-09-09T08:07:17;20.20;1.00
827;DHT22;395;48.132;11.608;2022-09-09T08:09:43;20.20;1.00
827;DHT22;395;48.132;11.608;2022-09-09T08:12:09;20.20;1.00
827;DHT22;395;48.132;11.608;2022-09-09T08:14:38;20.30;1.00
827;DHT22;395;48.132;11.608;2022-09-09T08:17:05;20.30;1.00
827;DHT22;395;48.132;11.608;2022-09-09T08:19:31;20.30;1.00
827;DHT22;395;48.132;11.608;2022-09-09T08:21:59;20.40;1.00
827;DHT22;395;48.132;11.608;2022-09-09T08:24:27;20.40;1.00
827;DHT22;395;48.132;11.608;2022-09-09T08:26:53;20.50;1.00
827;DHT22;395;48.132;11.608;2022-09-09T08:29:19;20.50;1.00
827;DHT22;395;48.132;11.608;2022-09-09T08:31:47;20.50;1.00
827;DHT22;395;48.132;11.608;2022-09-09T08:34:13;20.50;1.00
827;DHT22;395;48.132;11.608;2022-09-09T08:36:42;20.60;1.00
827;DHT22;395;48.132;11.608;2022-09-09T08:39:09;20.60;1.00
827;DHT22;395;48.132;11.608;2022-09-09T08:50:27;20.70;1.00
827;DHT22;395;48.132;11.608;2022-09-09T08:55:52;20.70;1.00
827;DHT22;395;48.132;11.608;2022-09-09T08:58:45;20.70;1.00
827;DHT22;395;48.132;11.608;2022-09-09T09:01:35;20.70;1.00
827;DHT22;395;48.132;11.608;2022-09-09T09:04:37;20.70;1.00
827;DHT22;395;48.132;11.608;2022-09-09T09:09:51;20.70;1.80
827;DHT22;395;48.132;11.608;2022-09-09T09:12:26;20.70;1.60
827;DHT22;395;48.132;11.608;2022-09-09T09:14:54;20.70;1.20
827;DHT22;395;48.132;11.608;2022-09-09T09:17:27;20.70;1.20
827;DHT22;395;48.132;11.608;2022-09-09T09:19:53;20.70;1.40
827;DHT22;395;48.132;11.608;2022-09-09T09:22:21;20.70;1.80
827;DHT22;395;48.132;11.608;2022-09-09T09:27:44;20.70;1.80
827;DHT22;395;48.132;11.608;2022-09-09T09:30:19;20.70;1.80
827;DHT22;395;48.132;11.608;2022-09-09T09:33:16;20.80;1.90
827;DHT22;395;48.132;11.608;2022-09-09T09:35:43;20.80;1.40
827;DHT22;395;48.132;11.608;2022-09-09T09:38:23;20.80;1.00
827;DHT22;395;48.132;11.608;2022-09-09T09:40:54;20.90;1.10
827;DHT22;395;48.132;11.608;2022-09-09T09:43:28;21.00;1.00
827;DHT22;395;48.132;11.608;2022-09-09T09:45:54;21.00;1.00
827;DHT22;395;48.132;11.608;2022-09-09T09:48:19;21.00;1.00
827;DHT22;395;48.132;11.608;2022-09-09T09:50:57;21.00;1.00
827;DHT22;395;48.132;11.608;2022-09-09T09:53:30;21.00;1.00
827;DHT22;395;48.132;11.608;2022-09-09T09:56:08;21.00;1.00
827;DHT22;395;48.132;11.608;2022-09-09T10:01:27;21.10;1.30
827;DHT22;395;48.132;11.608;2022-09-09T10:03:58;21.00;1.80
827;DHT22;395;48.132;11.608;2022-09-09T10:06:36;21.10;2.30
827;DHT22;395;48.132;11.608;2022-09-09T10:09:04;21.10;2.10
827;DHT22;395;48.132;11.608;2022-09-09T10:11:42;21.00;1.50
827;DHT22;395;48.132;11.608;2022-09-09T10:14:21;21.10;1.30
827;DHT22;395;48.132;11.608;2022-09-09T10:19:33;21.10;1.00
827;DHT22;395;48.132;11.608;2022-09-09T10:24:54;21.00;1.00
827;DHT22;395;48.132;11.608;2022-09-09T10:35:29;20.90;1.00
827;DHT22;395;48.132;11.608;2022-09-09T10:40:34;21.00;1.00
827;DHT22;395;48.132;11.608;2022-09-09T10:54:45;21.00;1.00
827;DHT22;395;48.132;11.608;2022-09-09T10:57:33;21.00;1.00
827;DHT22;395;48.132;11.608;2022-09-09T11:00:10;21.00;1.00
827;DHT22;395;48.132;11.608;2022-09-09T11:02:40;21.10;1.00
827;DHT22;395;48.132;11.608;2022-09-09T11:05:20;21.10;1.00
827;DHT22;395;48.132;11.608;2022-09-09T11:08:03;21.10;1.00
827;DHT22;395;48.132;11.608;2022-09-09T11:11:02;21.10;1.00
827;DHT22;395;48.132;11.608;2022-09-09T11:16:31;21.20;1.00
827;DHT22;395;48.132;11.608;2022-09-09T11:21:52;21.20;1.00
827;DHT22;395;48.132;11.608;2022-09-09T11:27:21;21.30;1.00
827;DHT22;395;48.132;11.608;2022-09-09T11:30:04;21.30;1.00
827;DHT22;395;48.132;11.608;2022-09-09T11:32:46;21.30;1.00
827;DHT22;395;48.132;11.608;2022-09-09T11:35:46;21.40;1.00
827;DHT22;395;48.132;11.608;2022-09-09T11:38:27;21.40;1.00
827;DHT22;395;48.132;11.608;2022-09-09T11:41:04;21.40;1.00
827;DHT22;395;48.132;11.608;2022-09-09T11:43:43;21.50;1.00
827;DHT22;395;48.132;11.608;2022-09-09T11:46:10;21.50;1.00
827;DHT22;395;48.132;11.608;2022-09-09T11:48:40;21.60;1.00
827;DHT22;395;48.132;11.608;2022-09-09T11:54:01;21.60;1.00
827;DHT22;395;48.132;11.608;2022-09-09T11:56:34;21.60;1.00
827;DHT22;395;48.132;11.608;2022-09-09T11:59:04;21.60;1.00
827;DHT22;395;48.132;11.608;2022-09-09T12:01:38;21.60;1.00
827;DHT22;395;48.132;11.608;2022-09-09T12:19:40;21.80;1.00
827;DHT22;395;48.132;11.608;2022-09-09T12:22:29;21.80;1.00
827;DHT22;395;48.132;11.608;2022-09-09T12:28:35;21.90;1.00
827;DHT22;395;48.132;11.608;2022-09-09T12:31:20;21.90;1.00
827;DHT22;395;48.132;11.608;2022-09-09T12:33:49;21.90;1.00
827;DHT22;395;48.132;11.608;2022-09-09T12:36:28;22.00;1.00
827;DHT22;395;48.132;11.608;2022-09-09T12:38:57;22.00;1.00
827;DHT22;395;48.132;11.608;2022-09-09T12:41:26;22.00;1.00
827;DHT22;395;48.132;11.608;2022-09-09T12:44:04;22.00;1.00
827;DHT22;395;48.132;11.608;2022-09-09T12:46:42;22.00;1.00
827;DHT22;395;48.132;11.608;2022-09-09T12:49:41;22.10;1.00
827;DHT22;395;48.132;11.608;2022-09-09T12:52:14;22.10;1.00
827;DHT22;395;48.132;11.608;2022-09-09T12:54:45;22.10;1.00
827;DHT22;395;48.132;11.608;2022-09-09T12:57:16;22.20;1.00
827;DHT22;395;48.132;11.608;2022-09-09T12:59:43;22.30;1.00
827;DHT22;395;48.132;11.608;2022-09-09T13:02:26;22.30;1.00
827;DHT22;395;48.132;11.608;2022-09-09T13:04:53;22.30;1.00
827;DHT22;395;48.132;11.608;2022-09-09T13:07:20;22.40;1.00
827;DHT22;395;48.132;11.608;2022-09-09T13:09:48;22.30;1.00
827;DHT22;395;48.132;11.608;2022-09-09T13:12:20;22.30;1.00
827;DHT22;395;48.132;11.608;2022-09-09T13:14:49;22.30;1.00
827;DHT22;395;48.132;11.608;2022-09-09T13:17:26;22.30;1.00
827;DHT22;395;48.132;11.608;2022-09-09T13:19:55;22.30;1.00
827;DHT22;395;48.132;11.608;2022-09-09T13:22:37;22.30;1.00
827;DHT22;395;48.132;11.608;2022-09-09T13:25:05;22.30;1.00
827;DHT22;395;48.132;11.608;2022-09-09T13:27:34;22.30;1.00
827;DHT22;395;48.132;11.608;2022-09-09T13:30:00;22.20;1.00
827;DHT22;395;48.132;11.608;2022-09-09T13:32:27;22.20;1.00
827;DHT22;395;48.132;11.608;2022-09-09T13:34:58;22.20;1.00
827;DHT22;395;48.132;11.608;2022-09-09T13:37:33;22.20;1.00
827;DHT22;395;48.132;11.608;2022-09-09T13:40:00;22.20;1.00
827;DHT22;395;48.132;11.608;2022-09-09T13:42:30;22.30;1.00
827;DHT22;395;48.132;11.608;2022-09-09T13:44:57;22.30;1.00
827;DHT22;395;48.132;11.608;2022-09-09T13:47:34;22.20;1.00
827;DHT22;395;48.132;11.608;2022-09-09T13:50:19;22.30;1.00
827;DHT22;395;48.132;11.608;2022-09-09T13:52:49;22.20;1.00
827;DHT22;395;48.132;11.608;2022-09-09T13:55:17;22.20;1.00
827;DHT22;395;48.132;11.608;2022-09-09T13:57:53;22.20;1.00
827;DHT22;395;48.132;11.608;2022-09-09T14:00:19;22.20;1.00
827;DHT22;395;48.132;11.608;2022-09-09T14:02:45;22.10;1.00
827;DHT22;395;48.132;11.608;2022-09-09T14:05:10;22.20;1.00
827;DHT22;395;48.132;11.608;2022-09-09T14:07:40;22.10;1.00
827;DHT22;395;48.132;11.608;2022-09-09T14:10:08;22.10;1.00
827;DHT22;395;48.132;11.608;2022-09-09T14:12:33;22.10;1.00
827;DHT22;395;48.132;11.608;2022-09-09T14:14:59;22.00;1.00
827;DHT22;395;48.132;11.608;2022-09-09T14:17:28;22.10;1.00
827;DHT22;395;48.132;11.608;2022-09-09T14:19:56;22.00;1.00
827;DHT22;395;48.132;11.608;2022-09-09T14:22:23;22.10;1.00
827;DHT22;395;48.132;11.608;2022-09-09T14:24:49;22.10;1.00
827;DHT22;395;48.132;11.608;2022-09-09T14:27:15;22.10;1.00
827;DHT22;395;48.132;11.608;2022-09-09T14:29:41;22.10;1.00
827;DHT22;395;48.132;11.608;2022-09-09T14:32:09;22.10;1.00
827;DHT22;395;48.132;11.608;2022-09-09T14:34:34;22.10;1.00
827;DHT22;395;48.132;11.608;2022-09-09T14:37:00;22.10;1.00
827;DHT22;395;48.132;11.608;2022-09-09T14:39:26;22.10;1.00
827;DHT22;395;48.132;11.608;2022-09-09T14:41:52;22.10;1.00
827;DHT22;395;48.132;11.608;2022-09-09T14:44:17;22.10;1.00
827;DHT22;395;48.132;11.608;2022-09-09T14:46:43;22.10;1.00
827;DHT22;395;48.132;11.608;2022-09-09T14:49:09;22.10;1.00
827;DHT22;395;48.132;11.608;2022-09-09T14:51:36;22.10;1.00
827;DHT22;395;48.132;11.608;2022-09-09T14:54:02;22.00;1.00
827;DHT22;395;48.132;11.608;2022-09-09T14:56:30;22.00;1.00
827;DHT22;395;48.132;11.608;2022-09-09T14:58:57;22.10;1.00
827;DHT22;395;48.132;11.608;2022-09-09T15:01:24;22.00;1.00
827;DHT22;395;48.132;11.608;2022-09-09T15:03:56;22.00;1.00
827;DHT22;395;48.132;11.608;2022-09-09T15:06:24;21.90;1.00
827;DHT22;395;48.132;11.608;2022-09-09T15:08:51;21.90;1.00
827;DHT22;395;48.132;11.608;2022-09-09T15:11:18;21.90;1.00
827;DHT22;395;48.132;11.608;2022-09-09T15:13:44;21.90;1.00
827;DHT22;395;48.132;11.608;2022-09-09T15:16:16;21.90;1.00
827;DHT22;395;48.132;11.608;2022-09-09T15:18:42;21.90;1.00
827;DHT22;395;48.132;11.608;2022-09-09T15:21:14;21.90;1.00
827;DHT22;395;48.132;11.608;2022-09-09T15:23:41;21.80;1.00
827;DHT22;395;48.132;11.608;2022-09-09T15:26:07;21.90;1.00
827;DHT22;395;48.132;11.608;2022-09-09T15:28:34;21.90;1.00
827;DHT22;395;48.132;11.608;2022-09-09T15:31:07;21.90;1.00
827;DHT22;395;48.132;11.608;2022-09-09T15:33:35;21.90;1.00
827;DHT22;395;48.132;11.608;2022-09-09T15:36:14;21.90;1.00
827;DHT22;395;48.132;11.608;2022-09-09T15:38:40;21.70;1.00
827;DHT22;395;48.132;11.608;2022-09-09T15:41:06;21.80;1.00
827;DHT22;395;48.132;11.608;2022-09-09T15:43:31;21.70;1.00
827;DHT22;395;48.132;11.608;2022-09-09T15:46:20;21.70;1.00
827;DHT22;395;48.132;11.608;2022-09-09T15:48:50;21.70;1.00
827;DHT22;395;48.132;11.608;2022-09-09T15:51:16;21.70;1.00
827;DHT22;395;48.132;11.608;2022-09-09T15:53:42;21.70;1.00
827;DHT22;395;48.132;11.608;2022-09-09T15:56:09;21.60;1.00
827;DHT22;395;48.132;11.608;2022-09-09T15:58:35;21.70;1.00
827;DHT22;395;48.132;11.608;2022-09-09T16:01:05;21.80;1.00
827;DHT22;395;48.132;11.608;2022-09-09T16:03:41;21.80;1.00
827;DHT22;395;48.132;11.608;2022-09-09T16:06:16;21.80;1.00
827;DHT22;395;48.132;11.608;2022-09-09T16:08:44;21.90;1.00
827;DHT22;395;48.132;11.608;2022-09-09T16:11:13;21.90;1.00
827;DHT22;395;48.132;11.608;2022-09-09T16:13:41;21.90;1.00
827;DHT22;395;48.132;11.608;2022-09-09T16:16:12;21.90;1.00
827;DHT22;395;48.132;11.608;2022-09-09T16:18:44;21.90;1.00
827;DHT22;395;48.132;11.608;2022-09-09T16:21:19;21.90;1.00
827;DHT22;395;48.132;11.608;2022-09-09T16:23:46;21.90;1.00
827;DHT22;395;48.132;11.608;2022-09-09T16:26:13;21.90;1.00
827;DHT22;395;48.132;11.608;2022-09-09T16:28:40;21.90;1.00
827;DHT22;395;48.132;11.608;2022-09-09T16:31:11;21.90;1.00
827;DHT22;395;48.132;11.608;2022-09-09T16:33:40;22.00;1.00
827;DHT22;395;48.132;11.608;2022-09-09T16:36:13;22.00;1.00
827;DHT22;395;48.132;11.608;2022-09-09T16:38:39;22.00;1.00
827;DHT22;395;48.132;11.608;2022-09-09T16:41:06;22.00;1.00
827;DHT22;395;48.132;11.608;2022-09-09T16:43:33;22.00;1.00
827;DHT22;395;48.132;11.608;2022-09-09T16:45:59;22.00;1.00
827;DHT22;395;48.132;11.608;2022-09-09T16:48:32;22.00;1.00
827;DHT22;395;48.132;11.608;2022-09-09T16:51:06;21.90;1.00
827;DHT22;395;48.132;11.608;2022-09-09T16:53:33;21.90;1.00
827;DHT22;395;48.132;11.608;2022-09-09T16:56:08;21.80;1.00
827;DHT22;395;48.132;11.608;2022-09-09T16:58:34;21.80;1.00
827;DHT22;395;48.132;11.608;2022-09-09T17:01:03;21.80;1.00
827;DHT22;395;48.132;11.608;2022-09-09T17:03:30;21.70;1.00
827;DHT22;395;48.132;11.608;2022-09-09T17:05:56;21.70;1.00
827;DHT22;395;48.132;11.608;2022-09-09T17:08:23;21.70;1.00
827;DHT22;395;48.132;11.608;2022-09-09T17:10:49;21.70;1.00
827;DHT22;395;48.132;11.608;2022-09-09T17:13:16;21.70;1.00
827;DHT22;395;48.132;11.608;2022-09-09T17:15:44;21.70;1.00
827;DHT22;395;48.132;11.608;2022-09-09T17:18:11;21.60;1.00
827;DHT22;395;48.132;11.608;2022-09-09T17:20:38;21.50;1.00
827;DHT22;395;48.132;11.608;2022-09-09T17:23:08;21.40;1.00
827;DHT22;395;48.132;11.608;2022-09-09T17:25:35;21.30;1.00
827;DHT22;395;48.132;11.608;2022-09-09T17:28:01;21.30;1.00
827;DHT22;395;48.132;11.608;2022-09-09T17:30:27;21.30;1.00
827;DHT22;395;48.132;11.608;2022-09-09T17:32:53;21.20;1.00
827;DHT22;395;48.132;11.608;2022-09-09T17:35:19;21.20;1.00
827;DHT22;395;48.132;11.608;2022-09-09T17:37:44;21.10;1.00
827;DHT22;395;48.132;11.608;2022-09-09T17:40:10;21.10;1.00
827;DHT22;395;48.132;11.608;2022-09-09T17:42:36;21.10;1.00
827;DHT22;395;48.132;11.608;2022-09-09T17:45:03;21.00;1.00
827;DHT22;395;48.132;11.608;2022-09-09T17:47:29;21.00;1.00
827;DHT22;395;48.132;11.608;2022-09-09T17:49:56;20.90;1.00
827;DHT22;395;48.132;11.608;2022-09-09T17:52:21;20.90;1.00
827;DHT22;395;48.132;11.608;2022-09-09T17:54:48;20.90;1.00
827;DHT22;395;48.132;11.608;2022-09-09T17:57:15;20.80;1.00
827;DHT22;395;48.132;11.608;2022-09-09T17:59:43;20.80;1.00
827;DHT22;395;48.132;11.608;2022-09-09T18:02:10;20.70;1.00
827;DHT22;395;48.132;11.608;2022-09-09T18:04:36;20.70;1.00
827;DHT22;395;48.132;11.608;2022-09-09T18:07:02;20.70;1.00
827;DHT22;395;48.132;11.608;2022-09-09T18:09:27;20.70;1.00
827;DHT22;395;48.132;11.608;2022-09-09T18:11:55;20.60;1.00
827;DHT22;395;48.132;11.608;2022-09-09T18:14:33;20.60;1.00
827;DHT22;395;48.132;11.608;2022-09-09T18:17:01;20.60;1.00
827;DHT22;395;48.132;11.608;2022-09-09T18:19:29;20.50;1.00
827;DHT22;395;48.132;11.608;2022-09-09T18:21:56;20.40;1.00
827;DHT22;395;48.132;11.608;2022-09-09T18:24:23;20.40;1.00
827;DHT22;395;48.132;11.608;2022-09-09T18:26:50;20.40;1.00
827;DHT22;395;48.132;11.608;2022-09-09T18:29:18;20.30;1.00
827;DHT22;395;48.132;11.608;2022-09-09T18:31:45;20.30;1.00
827;DHT22;395;48.132;11.608;2022-09-09T18:34:13;20.20;1.00
827;DHT22;395;48.132;11.608;2022-09-09T18:36:47;20.20;1.00
827;DHT22;395;48.132;11.608;2022-09-09T18:39:16;20.30;1.00
827;DHT22;395;48.132;11.608;2022-09-09T18:41:47;20.10;1.00
827;DHT22;395;48.132;11.608;2022-09-09T18:44:19;20.10;1.00
827;DHT22;395;48.132;11.608;2022-09-09T18:46:46;20.10;1.00
827;DHT22;395;48.132;11.608;2022-09-09T18:49:12;20.10;1.00
827;DHT22;395;48.132;11.608;2022-09-09T18:51:40;20.10;1.00
827;DHT22;395;48.132;11.608;2022-09-09T18:54:10;20.00;1.00
827;DHT22;395;48.132;11.608;2022-09-09T18:56:37;20.10;1.00
827;DHT22;395;48.132;11.608;2022-09-09T18:59:05;20.10;1.00
827;DHT22;395;48.132;11.608;2022-09-09T19:01:31;20.10;1.00
827;DHT22;395;48.132;11.608;2022-09-09T19:04:01;20.10;1.00